Time;durP1;ratioP1;P1;durP2;ratioP2;P2;SDS_P1;SDS_P2;PMS_P1;PMS_P2;Temp;Humidity;BMP_temperature;BMP_pressure;BME280_temperature;BME280_humidity;BME280_pressure;Samples;Min_cycle;Max_cycle;Signal;HPM_P1;HPM_P2
2022/04/29 00:00:55;;;;;;;33.78;28.98;;;9.90;83.50;;;;;;5015142;28;20538;-76
2022/04/29 00:03:21;;;;;;;34.33;28.70;;;9.90;83.60;;;;;;5020468;28;20112;-75
2022/04/29 00:05:47;;;;;;;38.97;28.70;;;10.00;83.50;;;;;;5018618;28;20037;-77
2022/04/29 00:08:14;;;;;;;38.50;28.33;;;9.90;83.50;;;;;;5023635;28;20556;-76
2022/04/29 00:10:41;;;;;;;36.13;27.70;;;9.90;83.50;;;;;;5015219;28;20038;-78
2022/04/29 00:13:09;;;;;;;34.90;29.90;;;10.00;83.60;;;;;;5022583;28;20528;-77
2022/04/29 00:15:35;;;;;;;38.60;29.23;;;9.90;83.50;;;;;;5022005;28;20499;-77
2022/04/29 00:18:00;;;;;;;36.22;27.75;;;9.90;83.50;;;;;;5018388;28;20592;-78
2022/04/29 00:20:26;;;;;;;37.15;28.73;;;9.90;83.40;;;;;;5018577;28;20052;-75
2022/04/29 00:22:52;;;;;;;35.28;29.13;;;9.90;83.60;;;;;;5018378;28;20043;-74
2022/04/29 00:25:17;;;;;;;34.63;29.85;;;9.90;83.50;;;;;;5021270;28;20108;-77
2022/04/29 00:27:43;;;;;;;37.80;28.73;;;9.90;83.40;;;;;;5018035;28;20135;-78
2022/04/29 00:30:11;;;;;;;38.38;28.13;;;9.90;83.50;;;;;;5017709;28;20128;-76
2022/04/29 00:32:38;;;;;;;33.60;26.92;;;9.80;83.50;;;;;;5016603;28;20038;-75
2022/04/29 00:35:04;;;;;;;38.08;27.80;;;9.90;83.60;;;;;;5025186;28;20056;-74
2022/04/29 00:37:30;;;;;;;34.85;27.38;;;9.90;83.40;;;;;;5017336;28;20610;-77
2022/04/29 00:39:56;;;;;;;33.00;26.98;;;9.90;83.40;;;;;;5020235;28;20046;-75
2022/04/29 00:42:23;;;;;;;35.22;26.20;;;9.90;83.30;;;;;;5015760;28;20060;-77
2022/04/29 00:44:49;;;;;;;40.10;26.42;;;9.90;83.30;;;;;;5015474;28;20053;-77
2022/04/29 00:47:20;;;;;;;30.30;26.98;;;9.90;83.20;;;;;;5027582;28;20044;-77
2022/04/29 00:49:47;;;;;;;34.10;26.17;;;9.80;83.30;;;;;;5012354;28;20125;-79
2022/04/29 00:52:19;;;;;;;33.55;26.27;;;9.80;83.40;;;;;;5022099;28;20034;-80
2022/04/29 00:54:50;;;;;;;32.92;26.80;;;9.80;83.50;;;;;;5019770;28;20114;-76
2022/04/29 00:57:28;;;;;;;34.40;26.45;;;9.80;83.40;;;;;;5031694;28;20578;-79
2022/04/29 01:00:09;;;;;;;36.60;26.50;;;9.70;83.40;;;;;;5017651;28;20045;-76
2022/04/29 01:02:41;;;;;;;34.17;25.38;;;9.70;83.40;;;;;;5014285;28;20161;-77
2022/04/29 01:05:18;;;;;;;32.05;25.60;;;9.70;83.50;;;;;;5008853;28;20086;-78
2022/04/29 01:07:45;;;;;;;31.10;25.52;;;9.70;83.50;;;;;;5008433;28;20049;-76
2022/04/29 01:10:12;;;;;;;34.45;25.88;;;9.60;83.70;;;;;;5019556;28;20048;-76
2022/04/29 01:12:40;;;;;;;32.83;24.95;;;9.70;83.80;;;;;;5017963;28;20037;-74
2022/04/29 01:15:09;;;;;;;31.55;23.75;;;9.70;83.70;;;;;;5016573;28;20630;-76
2022/04/29 01:17:36;;;;;;;33.75;24.35;;;9.70;83.80;;;;;;5014041;28;20033;-77
2022/04/29 01:20:07;;;;;;;33.90;25.55;;;9.70;83.80;;;;;;5030956;28;20512;-77
2022/04/29 01:22:33;;;;;;;34.00;26.05;;;9.60;83.80;;;;;;5019196;28;20034;-79
2022/04/29 01:24:59;;;;;;;34.17;25.85;;;9.60;84.00;;;;;;5018990;28;20103;-76
2022/04/29 01:27:25;;;;;;;34.58;25.20;;;9.60;84.00;;;;;;5014952;28;20049;-75
2022/04/29 01:30:09;;;;;;;33.83;27.20;;;9.60;84.10;;;;;;5027998;28;20061;-77
2022/04/29 01:32:36;;;;;;;35.28;27.27;;;9.60;84.10;;;;;;5016649;28;20033;-79
2022/04/29 01:35:03;;;;;;;35.63;27.02;;;9.60;84.20;;;;;;5022289;28;20047;-78
2022/04/29 01:37:28;;;;;;;35.50;26.90;;;9.60;84.50;;;;;;5019057;28;20136;-76
2022/04/29 01:39:54;;;;;;;37.03;26.80;;;9.60;84.40;;;;;;5020277;28;20430;-77
2022/04/29 01:42:20;;;;;;;33.42;26.08;;;9.50;84.50;;;;;;5022508;28;20065;-76
2022/04/29 01:44:46;;;;;;;38.55;26.80;;;9.50;84.50;;;;;;5026824;28;20033;-76
2022/04/29 01:47:12;;;;;;;35.75;27.75;;;9.50;84.60;;;;;;5017672;28;20384;-74
2022/04/29 01:49:38;;;;;;;42.17;27.98;;;9.40;84.90;;;;;;5010694;28;20026;-76
2022/04/29 01:52:04;;;;;;;37.33;28.05;;;9.40;84.90;;;;;;5027774;28;20387;-76
2022/04/29 01:54:30;;;;;;;35.97;27.25;;;9.40;85.00;;;;;;5017457;28;20033;-76
2022/04/29 01:56:56;;;;;;;36.13;26.48;;;9.40;84.90;;;;;;5015345;28;20099;-75
2022/04/29 01:59:22;;;;;;;36.88;26.98;;;9.40;85.00;;;;;;5014632;28;20656;-79
2022/04/29 02:01:48;;;;;;;32.85;25.70;;;9.30;85.00;;;;;;5032300;28;20041;-78
2022/04/29 02:04:14;;;;;;;33.00;25.48;;;9.40;85.00;;;;;;5022164;28;20137;-74
2022/04/29 02:06:40;;;;;;;30.10;24.27;;;9.30;85.10;;;;;;5025602;28;20038;-77
2022/04/29 02:09:06;;;;;;;33.35;24.83;;;9.30;85.10;;;;;;5020455;28;20452;-77
2022/04/29 02:11:34;;;;;;;29.05;24.35;;;9.30;85.00;;;;;;5032632;28;20146;-78
2022/04/29 02:14:01;;;;;;;32.08;24.50;;;9.30;85.00;;;;;;5021286;28;20448;-77
2022/04/29 02:16:27;;;;;;;29.45;23.58;;;9.30;85.00;;;;;;5030119;28;20044;-74
2022/04/29 02:18:53;;;;;;;33.13;24.08;;;9.20;85.10;;;;;;5021941;28;20029;-74
2022/04/29 02:21:18;;;;;;;33.22;24.50;;;9.10;85.20;;;;;;5025457;28;20119;-74
2022/04/29 02:23:44;;;;;;;28.60;23.27;;;9.10;85.30;;;;;;5025897;28;20045;-77
2022/04/29 02:26:10;;;;;;;30.67;23.80;;;9.20;85.30;;;;;;5027323;28;20037;-76
2022/04/29 02:28:35;;;;;;;31.80;23.27;;;9.10;85.20;;;;;;5023264;28;20438;-76
2022/04/29 02:31:01;;;;;;;33.10;24.85;;;9.10;85.30;;;;;;5025676;28;20057;-74
2022/04/29 02:33:28;;;;;;;34.08;25.05;;;9.10;85.30;;;;;;5030300;28;20049;-76
2022/04/29 02:35:54;;;;;;;29.15;23.48;;;9.10;85.30;;;;;;5031906;28;20043;-76
2022/04/29 02:38:20;;;;;;;33.33;25.45;;;9.10;85.40;;;;;;5022661;28;20034;-74
2022/04/29 02:40:50;;;;;;;34.33;24.52;;;9.00;85.40;;;;;;5028990;28;20033;-78
2022/04/29 02:43:19;;;;;;;28.33;23.02;;;9.00;85.40;;;;;;5022283;28;20088;-75
2022/04/29 02:45:46;;;;;;;31.33;24.88;;;9.00;85.50;;;;;;5022491;28;20099;-75
2022/04/29 02:48:13;;;;;;;30.05;24.52;;;8.90;85.40;;;;;;5022425;28;20065;-76
2022/04/29 02:50:39;;;;;;;31.73;24.67;;;8.90;85.60;;;;;;5021172;28;20038;-77
2022/04/29 02:53:05;;;;;;;34.40;24.50;;;8.90;85.70;;;;;;5022802;28;20457;-76
2022/04/29 02:55:31;;;;;;;32.22;24.60;;;8.90;85.70;;;;;;5025130;28;20703;-77
2022/04/29 02:57:56;;;;;;;36.17;25.33;;;8.90;85.80;;;;;;5017315;28;20063;-78
2022/04/29 03:00:22;;;;;;;33.33;25.13;;;8.80;85.70;;;;;;5023329;28;20485;-76
2022/04/29 03:02:47;;;;;;;32.50;24.75;;;8.80;85.90;;;;;;5022468;28;20045;-78
2022/04/29 03:05:13;;;;;;;33.10;24.85;;;8.70;85.80;;;;;;5027840;28;20063;-76
2022/04/29 03:07:39;;;;;;;32.80;24.63;;;8.70;86.00;;;;;;5028525;28;20053;-76
2022/04/29 03:10:05;;;;;;;32.08;25.25;;;8.70;85.90;;;;;;5026527;28;20025;-76
2022/04/29 03:12:31;;;;;;;31.33;25.70;;;8.70;86.00;;;;;;5021426;28;20029;-75
2022/04/29 03:15:15;;;;;;;35.17;26.63;;;8.70;86.00;;;;;;5025588;28;20036;-78
2022/04/29 03:20:26;;;;;;;34.75;27.23;;;8.60;86.20;;;;;;5030764;28;20487;-77
2022/04/29 03:22:52;;;;;;;39.42;28.05;;;8.60;86.30;;;;;;5028518;28;20137;-76
2022/04/29 03:25:18;;;;;;;37.17;28.38;;;8.60;86.30;;;;;;5018679;28;20076;-78
2022/04/29 03:27:43;;;;;;;38.30;29.13;;;8.60;86.40;;;;;;5016493;28;20053;-77
2022/04/29 03:30:10;;;;;;;37.25;29.00;;;8.60;86.50;;;;;;5018259;28;20052;-77
2022/04/29 03:32:35;;;;;;;36.13;28.58;;;8.50;86.60;;;;;;5021161;28;20040;-76
2022/04/29 03:35:01;;;;;;;39.05;28.52;;;8.50;86.50;;;;;;5018941;28;20029;-76
2022/04/29 03:37:27;;;;;;;38.33;29.25;;;8.50;86.50;;;;;;5027976;28;20526;-75
2022/04/29 03:39:53;;;;;;;39.55;28.33;;;8.50;86.50;;;;;;5018227;28;20040;-75
2022/04/29 03:42:20;;;;;;;40.90;29.95;;;8.50;86.60;;;;;;5026830;28;20461;-77
2022/04/29 03:44:46;;;;;;;36.75;28.50;;;8.40;86.60;;;;;;5018785;28;20033;-79
2022/04/29 03:47:12;;;;;;;41.33;29.30;;;8.40;86.70;;;;;;5020332;28;20041;-77
2022/04/29 03:49:38;;;;;;;35.30;27.90;;;8.40;86.60;;;;;;5018664;28;20042;-75
2022/04/29 03:52:05;;;;;;;37.05;29.20;;;8.40;86.70;;;;;;5022470;28;20033;-76
2022/04/29 03:54:31;;;;;;;40.13;28.55;;;8.40;86.60;;;;;;5024446;28;20032;-75
2022/04/29 03:56:57;;;;;;;38.85;29.80;;;8.40;86.70;;;;;;5019214;28;20038;-77
2022/04/29 03:59:23;;;;;;;40.13;29.58;;;8.40;86.70;;;;;;5018534;28;20468;-76
2022/04/29 04:01:49;;;;;;;40.25;29.17;;;8.40;86.70;;;;;;5023387;28;20048;-76
2022/04/29 04:04:14;;;;;;;38.60;29.80;;;8.30;86.70;;;;;;5019293;28;20041;-78
2022/04/29 04:06:49;;;;;;;39.92;30.10;;;8.30;86.80;;;;;;5023443;28;20040;-75
2022/04/29 04:09:22;;;;;;;44.97;30.48;;;8.30;86.80;;;;;;5022448;28;20044;-77
2022/04/29 04:11:51;;;;;;;38.85;29.75;;;8.30;86.80;;;;;;5020491;28;20099;-78
2022/04/29 04:14:20;;;;;;;38.35;29.40;;;8.30;86.90;;;;;;5022527;28;20045;-76
2022/04/29 04:16:46;;;;;;;44.70;30.13;;;8.30;86.90;;;;;;5015550;28;20148;-77
2022/04/29 04:19:12;;;;;;;39.05;29.30;;;8.30;86.90;;;;;;5011980;28;20071;-75
2022/04/29 04:21:39;;;;;;;39.92;29.48;;;8.20;87.10;;;;;;5019519;28;20512;-78
2022/04/29 04:24:06;;;;;;;38.42;29.55;;;8.20;87.20;;;;;;5009368;28;20107;-78
2022/04/29 04:26:32;;;;;;;34.85;28.45;;;8.20;87.20;;;;;;5012357;28;20038;-75
2022/04/29 04:28:58;;;;;;;40.22;29.10;;;8.20;87.20;;;;;;5005449;28;20034;-77
2022/04/29 04:31:24;;;;;;;38.72;29.25;;;8.30;87.20;;;;;;5006027;28;20041;-76
2022/04/29 04:33:53;;;;;;;39.80;28.88;;;8.30;87.10;;;;;;5005791;28;20033;-78
2022/04/29 04:36:19;;;;;;;37.45;28.15;;;8.30;87.00;;;;;;5005974;28;20084;-76
2022/04/29 04:38:47;;;;;;;34.40;26.95;;;8.30;87.00;;;;;;5005065;28;20117;-75
2022/04/29 04:41:15;;;;;;;34.90;26.92;;;8.30;87.00;;;;;;5004842;28;20904;-75
2022/04/29 04:43:44;;;;;;;37.40;27.30;;;8.30;87.00;;;;;;5007986;28;20038;-77
2022/04/29 04:46:12;;;;;;;40.33;26.75;;;8.40;87.00;;;;;;5004053;28;20030;-76
2022/04/29 04:48:38;;;;;;;37.25;27.50;;;8.40;86.80;;;;;;5010354;28;20095;-75
2022/04/29 04:51:04;;;;;;;33.70;28.05;;;8.40;86.90;;;;;;5010957;28;20033;-75
2022/04/29 04:53:30;;;;;;;30.88;25.45;;;8.40;86.70;;;;;;5021123;28;20524;-74
2022/04/29 04:55:56;;;;;;;40.92;26.63;;;8.40;86.60;;;;;;5011905;28;20121;-78
2022/04/29 04:58:22;;;;;;;39.22;26.55;;;8.50;86.60;;;;;;5015649;28;20503;-78
2022/04/29 05:00:47;;;;;;;37.72;27.15;;;8.50;86.60;;;;;;5013346;28;20057;-79
2022/04/29 05:03:13;;;;;;;35.05;26.50;;;8.50;86.60;;;;;;5013003;28;20041;-75
2022/04/29 05:05:39;;;;;;;33.38;25.20;;;8.60;86.40;;;;;;5023256;28;20576;-76
2022/04/29 05:08:05;;;;;;;33.22;25.65;;;8.60;86.40;;;;;;5000080;28;20327;-74
2022/04/29 05:10:31;;;;;;;35.50;25.73;;;8.60;86.30;;;;;;5006460;28;20091;-76
2022/04/29 05:12:57;;;;;;;31.83;24.67;;;8.50;86.20;;;;;;5006260;28;20113;-73
2022/04/29 05:15:22;;;;;;;31.63;24.13;;;8.60;86.20;;;;;;5010995;28;20284;-75
2022/04/29 05:17:48;;;;;;;32.95;22.80;;;8.50;86.20;;;;;;5004957;28;20131;-78
2022/04/29 05:20:16;;;;;;;30.63;23.73;;;8.60;86.20;;;;;;5005483;28;20121;-76
2022/04/29 05:22:42;;;;;;;32.40;24.40;;;8.60;86.20;;;;;;5006529;28;20038;-76
2022/04/29 05:25:08;;;;;;;30.80;23.88;;;8.70;86.00;;;;;;5008110;28;20045;-78
2022/04/29 05:27:34;;;;;;;30.42;22.98;;;8.60;85.80;;;;;;5012767;28;20349;-74
2022/04/29 05:29:59;;;;;;;32.08;24.63;;;8.70;85.80;;;;;;5016680;28;20049;-78
2022/04/29 05:32:26;;;;;;;33.35;23.95;;;8.70;85.70;;;;;;5016660;28;20049;-80
2022/04/29 05:34:52;;;;;;;30.38;21.27;;;8.70;85.70;;;;;;5005768;28;20044;-75
2022/04/29 05:37:18;;;;;;;31.13;22.55;;;8.70;85.60;;;;;;5025644;28;20499;-74
2022/04/29 05:42:28;;;;;;;29.45;22.38;;;8.80;85.60;;;;;;5014674;28;20428;-73
2022/04/29 05:44:54;;;;;;;31.17;21.20;;;8.80;85.50;;;;;;5016763;28;20045;-73
2022/04/29 05:47:20;;;;;;;30.00;21.35;;;8.80;85.40;;;;;;5016429;28;20040;-72
2022/04/29 05:49:45;;;;;;;37.05;22.27;;;8.80;85.40;;;;;;5024857;28;20033;-72
2022/04/29 05:52:11;;;;;;;29.35;21.63;;;8.80;85.50;;;;;;5025746;28;20029;-73
2022/04/29 05:54:37;;;;;;;29.83;20.23;;;8.90;85.60;;;;;;5018914;28;20490;-73
2022/04/29 05:57:04;;;;;;;29.60;20.65;;;8.90;85.50;;;;;;5020159;28;20148;-71
2022/04/29 05:59:30;;;;;;;32.22;22.02;;;8.90;85.50;;;;;;5017860;28;20034;-74
2022/04/29 06:01:56;;;;;;;33.53;21.88;;;8.90;85.30;;;;;;5007097;28;20033;-71
2022/04/29 06:04:22;;;;;;;32.90;20.60;;;8.90;85.20;;;;;;5004357;28;20034;-74
2022/04/29 06:06:48;;;;;;;32.33;21.02;;;9.00;85.10;;;;;;5008691;28;20176;-73
2022/04/29 06:09:14;;;;;;;31.60;21.35;;;9.00;84.80;;;;;;5016317;28;20045;-72
2022/04/29 06:11:40;;;;;;;30.45;20.88;;;9.00;84.70;;;;;;5012433;28;20034;-71
2022/04/29 06:14:05;;;;;;;31.65;20.33;;;9.00;84.50;;;;;;5015378;28;20098;-73
2022/04/29 06:16:31;;;;;;;29.67;19.25;;;9.00;84.70;;;;;;5019286;28;20092;-73
2022/04/29 06:18:56;;;;;;;29.90;20.33;;;9.10;84.70;;;;;;5016258;28;20044;-72
2022/04/29 06:21:22;;;;;;;29.27;19.60;;;9.00;84.60;;;;;;5017149;28;20033;-73
2022/04/29 06:23:49;;;;;;;27.80;20.13;;;8.90;84.50;;;;;;5017475;28;20034;-74
2022/04/29 06:26:15;;;;;;;28.85;20.42;;;8.90;84.70;;;;;;5017241;28;20033;-72
2022/04/29 06:28:41;;;;;;;31.33;20.30;;;9.00;84.90;;;;;;5028631;28;20065;-71
2022/04/29 06:31:07;;;;;;;33.13;20.42;;;9.00;84.80;;;;;;5020754;28;20041;-70
2022/04/29 06:33:33;;;;;;;28.83;19.35;;;9.00;84.60;;;;;;5015742;28;20406;-72
2022/04/29 06:36:00;;;;;;;31.63;19.38;;;9.00;84.50;;;;;;5015733;28;20033;-72
2022/04/29 06:38:25;;;;;;;32.63;20.77;;;9.00;84.60;;;;;;5009050;28;20038;-72
2022/04/29 06:40:52;;;;;;;32.25;19.38;;;9.10;84.50;;;;;;5019889;28;20095;-73
2022/04/29 06:43:19;;;;;;;26.27;20.48;;;9.10;84.40;;;;;;5026162;28;20565;-74
2022/04/29 06:45:44;;;;;;;27.35;18.98;;;9.10;84.10;;;;;;5005282;28;20065;-73
2022/04/29 06:48:10;;;;;;;27.38;18.60;;;9.20;84.00;;;;;;5005156;28;20120;-73
2022/04/29 06:50:35;;;;;;;31.23;18.15;;;9.40;83.80;;;;;;5013717;28;20385;-74
2022/04/29 06:53:01;;;;;;;29.27;19.15;;;9.40;83.10;;;;;;5015683;28;20044;-71
2022/04/29 06:55:27;;;;;;;25.60;18.05;;;9.40;83.10;;;;;;5019786;28;20033;-73
2022/04/29 06:57:53;;;;;;;26.95;18.60;;;9.30;83.00;;;;;;5014559;28;20480;-73
2022/04/29 07:00:19;;;;;;;28.42;18.83;;;9.20;82.90;;;;;;5012119;28;20099;-71
2022/04/29 07:02:46;;;;;;;27.75;18.08;;;9.20;83.00;;;;;;5015061;28;20029;-76
2022/04/29 07:05:11;;;;;;;30.10;20.58;;;9.20;83.40;;;;;;5017582;28;21779;-73
2022/04/29 07:07:37;;;;;;;29.58;19.13;;;9.20;83.50;;;;;;5014264;28;20535;-71
2022/04/29 07:10:04;;;;;;;28.80;18.83;;;9.20;83.50;;;;;;5017950;28;20046;-73
2022/04/29 07:12:33;;;;;;;29.65;18.65;;;9.20;83.10;;;;;;5021010;28;20392;-75
2022/04/29 07:14:59;;;;;;;28.02;17.65;;;9.20;83.40;;;;;;5021771;28;20401;-74
2022/04/29 07:17:25;;;;;;;25.70;17.42;;;9.20;83.60;;;;;;5018775;28;20053;-73
2022/04/29 07:19:52;;;;;;;28.45;18.67;;;9.10;83.40;;;;;;5022669;28;20456;-73
2022/04/29 07:22:17;;;;;;;27.52;17.45;;;9.10;83.50;;;;;;5017484;28;20106;-72
2022/04/29 07:24:43;;;;;;;28.23;18.23;;;9.20;83.10;;;;;;5021854;28;20114;-72
2022/04/29 07:27:09;;;;;;;24.10;16.63;;;9.20;83.30;;;;;;5020266;28;20115;-73
2022/04/29 07:29:34;;;;;;;30.55;18.42;;;9.20;83.30;;;;;;5017882;28;20120;-72
2022/04/29 07:32:00;;;;;;;35.10;18.65;;;9.30;83.30;;;;;;5031331;28;20072;-73
2022/04/29 07:41:44;;;;;;;27.63;17.60;;;9.30;82.80;;;;;;5030242;28;20038;-75
2022/04/29 07:42:40;;;;;;;30.60;18.48;;;9.40;82.60;;;;;;5007460;28;20085;-73
2022/04/29 07:45:07;;;;;;;27.73;17.42;;;9.40;82.80;;;;;;5017614;28;20096;-71
2022/04/29 07:47:32;;;;;;;28.95;18.00;;;9.50;82.90;;;;;;5027119;28;20033;-72
2022/04/29 07:49:58;;;;;;;27.60;18.35;;;9.50;83.00;;;;;;5015068;28;20072;-72
2022/04/29 07:52:24;;;;;;;24.88;17.40;;;9.60;83.20;;;;;;5016064;28;20117;-72
2022/04/29 07:54:49;;;;;;;28.70;18.35;;;9.70;82.80;;;;;;5021705;28;20037;-71
2022/04/29 07:57:15;;;;;;;26.73;17.17;;;9.80;82.90;;;;;;5019502;28;20171;-72
2022/04/29 07:59:41;;;;;;;28.40;18.08;;;10.00;82.30;;;;;;5017576;28;20624;-72
2022/04/29 08:02:07;;;;;;;27.23;17.63;;;10.00;81.40;;;;;;5011504;28;20683;-74
2022/04/29 08:04:33;;;;;;;27.08;18.08;;;10.10;81.30;;;;;;5020888;28;20064;-74
2022/04/29 08:06:59;;;;;;;29.45;18.48;;;10.10;81.40;;;;;;5019138;28;20046;-73
2022/04/29 08:09:25;;;;;;;28.27;17.60;;;10.10;81.10;;;;;;5015047;28;20026;-73
2022/04/29 08:11:51;;;;;;;32.70;19.55;;;10.10;80.80;;;;;;5009734;28;20727;-74
2022/04/29 08:14:18;;;;;;;29.63;18.27;;;10.10;80.40;;;;;;5009707;28;20055;-73
2022/04/29 08:16:44;;;;;;;28.15;18.63;;;10.00;80.40;;;;;;5016732;28;20037;-73
2022/04/29 08:19:11;;;;;;;29.08;17.83;;;10.10;79.90;;;;;;5013528;28;20030;-74
2022/04/29 08:21:37;;;;;;;28.17;17.45;;;10.20;80.20;;;;;;5013454;28;20456;-74
2022/04/29 08:24:02;;;;;;;28.98;18.58;;;10.40;79.90;;;;;;5010396;28;20041;-72
2022/04/29 08:26:28;;;;;;;23.98;17.13;;;10.60;79.00;;;;;;5014921;28;20800;-73
2022/04/29 08:28:55;;;;;;;24.98;17.63;;;10.60;77.80;;;;;;5017458;28;20029;-74
2022/04/29 08:31:21;;;;;;;30.10;18.58;;;10.70;77.90;;;;;;5012751;28;20517;-74
2022/04/29 08:33:47;;;;;;;25.00;17.63;;;10.90;77.60;;;;;;5009826;28;20069;-75
2022/04/29 08:36:13;;;;;;;26.80;17.52;;;11.10;77.20;;;;;;5006013;28;20138;-75
2022/04/29 08:38:39;;;;;;;25.63;17.30;;;11.10;76.30;;;;;;5007096;28;20099;-73
2022/04/29 08:41:06;;;;;;;26.48;17.75;;;11.30;76.20;;;;;;5006339;28;20137;-74
2022/04/29 08:43:33;;;;;;;29.63;18.77;;;11.40;75.90;;;;;;5029934;28;20041;-74
2022/04/29 08:46:00;;;;;;;23.65;17.15;;;11.40;75.10;;;;;;5019015;28;20049;-72
2022/04/29 08:48:28;;;;;;;26.33;16.98;;;11.30;75.00;;;;;;5015417;28;20068;-74
2022/04/29 08:50:59;;;;;;;26.00;17.75;;;11.10;76.10;;;;;;5005899;28;20033;-73
2022/04/29 08:53:25;;;;;;;25.85;17.85;;;11.10;76.30;;;;;;5020047;28;20117;-73
2022/04/29 08:58:38;;;;;;;29.40;18.43;;;11.40;75.20;;;;;;5017571;28;20051;-76
2022/04/29 09:01:13;;;;;;;27.50;19.38;;;11.50;75.30;;;;;;5018914;28;20322;-74
2022/04/29 09:03:42;;;;;;;27.40;18.00;;;11.50;74.60;;;;;;5003818;28;20116;-75
2022/04/29 09:06:08;;;;;;;27.35;17.67;;;11.60;74.60;;;;;;5015352;28;20046;-73
2022/04/29 09:08:45;;;;;;;27.80;18.08;;;11.60;74.30;;;;;;5025425;28;20029;-73
2022/04/29 09:11:25;;;;;;;25.05;19.33;;;11.60;74.50;;;;;;5020698;28;20044;-73
2022/04/29 09:13:51;;;;;;;27.83;18.50;;;11.80;74.10;;;;;;5007328;28;20033;-76
2022/04/29 09:16:17;;;;;;;23.67;17.67;;;11.90;74.10;;;;;;5009330;28;20029;-74
2022/04/29 09:18:48;;;;;;;25.73;19.08;;;11.90;73.30;;;;;;5006637;28;20049;-76
2022/04/29 09:21:20;;;;;;;25.38;17.77;;;11.90;73.70;;;;;;5005754;28;20033;-74
2022/04/29 09:23:56;;;;;;;29.50;18.48;;;12.00;73.50;;;;;;5016164;28;20033;-75
2022/04/29 09:26:24;;;;;;;28.60;18.20;;;12.10;73.40;;;;;;5003983;28;20037;-74
2022/04/29 09:28:52;;;;;;;26.13;18.02;;;12.00;73.00;;;;;;5010980;28;20045;-76
2022/04/29 09:31:18;;;;;;;26.65;19.15;;;11.90;73.50;;;;;;5009576;28;20064;-75
2022/04/29 09:33:57;;;;;;;27.27;18.92;;;12.00;73.40;;;;;;5007752;28;20089;-74
2022/04/29 09:36:26;;;;;;;26.25;18.42;;;12.10;73.40;;;;;;4999001;28;20054;-75
2022/04/29 09:41:37;;;;;;;29.58;20.30;;;12.10;72.60;;;;;;5007131;28;20475;-74
2022/04/29 09:44:03;;;;;;;29.02;20.15;;;12.10;72.40;;;;;;5010682;28;20747;-73
2022/04/29 09:46:29;;;;;;;26.25;20.40;;;12.20;72.30;;;;;;5021041;28;20037;-74
2022/04/29 09:49:03;;;;;;;26.88;18.27;;;12.30;72.20;;;;;;5023280;28;20021;-72
2022/04/29 09:51:45;;;;;;;23.17;17.67;;;12.60;71.70;;;;;;5017718;28;20041;-72
2022/04/29 09:54:25;;;;;;;26.48;18.73;;;12.70;70.70;;;;;;5027761;28;20057;-74
2022/04/29 09:57:06;;;;;;;26.58;18.80;;;12.90;69.70;;;;;;5022776;28;20141;-73
2022/04/29 09:59:36;;;;;;;23.58;18.98;;;12.80;69.60;;;;;;5009368;28;20605;-75
2022/04/29 10:02:04;;;;;;;29.17;19.38;;;12.90;69.90;;;;;;5026054;28;20038;-75
2022/04/29 10:04:32;;;;;;;25.67;18.83;;;13.10;70.40;;;;;;5016500;28;20026;-73
2022/04/29 10:06:59;;;;;;;25.60;18.52;;;13.10;69.40;;;;;;5016031;28;20045;-75
2022/04/29 10:09:30;;;;;;;24.42;17.75;;;13.30;69.50;;;;;;5010209;28;20464;-73
2022/04/29 10:11:58;;;;;;;25.73;17.98;;;13.30;68.90;;;;;;5018191;28;20485;-75
2022/04/29 10:14:28;;;;;;;27.27;17.60;;;13.20;68.40;;;;;;5016294;28;20491;-73
2022/04/29 10:22:50;;;;;;;24.27;18.80;;;13.60;68.10;;;;;;5007194;28;20049;-74
2022/04/29 10:25:20;;;;;;;25.42;18.45;;;13.70;68.10;;;;;;5001871;28;20037;-77
2022/04/29 10:27:48;;;;;;;27.15;18.15;;;13.80;67.20;;;;;;5010029;28;20485;-76
2022/04/29 10:30:15;;;;;;;26.08;19.90;;;14.10;68.20;;;;;;5008372;28;20047;-74
2022/04/29 10:33:10;;;;;;;29.08;19.63;;;14.10;66.40;;;;;;5011674;28;20208;-75
2022/04/29 10:35:50;;;;;;;25.77;18.13;;;14.40;65.90;;;;;;5008121;28;20693;-75
2022/04/29 10:38:27;;;;;;;24.75;19.25;;;14.30;66.00;;;;;;5010677;28;20099;-74
2022/04/29 10:41:15;;;;;;;29.60;19.45;;;14.40;64.50;;;;;;5011847;28;20037;-75
2022/04/29 10:43:47;;;;;;;28.52;20.08;;;14.60;63.70;;;;;;5023047;28;20068;-74
2022/04/29 10:46:39;;;;;;;26.85;21.27;;;14.70;64.50;;;;;;5007788;28;20030;-72
2022/04/29 10:49:24;;;;;;;28.67;21.08;;;14.70;64.40;;;;;;5003459;28;20034;-75
2022/04/29 10:51:59;;;;;;;28.38;21.85;;;14.80;64.60;;;;;;5011410;28;20358;-76
2022/04/29 10:54:34;;;;;;;27.42;19.63;;;14.90;63.80;;;;;;5007369;28;20046;-71
2022/04/29 10:57:06;;;;;;;27.52;20.67;;;14.60;63.90;;;;;;5006202;28;20037;-76
2022/04/29 10:59:57;;;;;;;29.48;21.17;;;14.60;64.30;;;;;;5005525;28;20053;-77
2022/04/29 11:02:35;;;;;;;29.17;21.48;;;14.80;63.60;;;;;;5012399;28;20084;-75
2022/04/29 11:05:02;;;;;;;22.98;20.40;;;15.00;63.50;;;;;;5006947;28;20029;-73
2022/04/29 11:07:41;;;;;;;27.13;19.73;;;15.40;63.30;;;;;;5009062;28;20497;-75
2022/04/29 11:10:15;;;;;;;24.95;18.60;;;15.30;62.20;;;;;;5006286;28;20042;-76
2022/04/29 11:12:54;;;;;;;23.98;17.92;;;15.60;63.10;;;;;;5007590;28;20822;-74
2022/04/29 11:15:23;;;;;;;27.25;19.17;;;16.10;60.10;;;;;;5008843;28;20041;-72
2022/04/29 11:17:49;;;;;;;26.13;19.20;;;16.30;59.60;;;;;;5014860;28;20099;-73
2022/04/29 11:20:23;;;;;;;24.98;19.42;;;16.30;60.40;;;;;;5009173;28;20026;-71
2022/04/29 11:25:54;;;;;;;24.38;18.35;;;16.60;58.50;;;;;;5012849;28;20037;-74
2022/04/29 11:28:20;;;;;;;21.55;18.05;;;16.80;57.30;;;;;;5018809;28;20051;-76
2022/04/29 11:30:47;;;;;;;24.08;19.38;;;16.80;57.70;;;;;;5010317;28;20322;-74
2022/04/29 11:33:13;;;;;;;25.55;19.02;;;16.90;56.60;;;;;;5002484;28;20616;-74
2022/04/29 11:35:39;;;;;;;26.20;18.63;;;16.70;56.10;;;;;;5017256;28;20033;-75
2022/04/29 11:38:08;;;;;;;25.88;20.42;;;16.60;56.50;;;;;;5021595;28;20612;-75
2022/04/29 11:40:37;;;;;;;24.95;19.75;;;16.60;57.40;;;;;;5012516;28;20052;-75
2022/04/29 11:43:08;;;;;;;24.27;19.50;;;16.70;56.70;;;;;;5019227;28;20108;-74
2022/04/29 11:45:34;;;;;;;26.90;20.92;;;16.50;57.70;;;;;;5017676;28;20587;-72
2022/04/29 11:48:09;;;;;;;26.88;20.70;;;16.40;57.90;;;;;;5016490;28;20038;-74
2022/04/29 11:50:36;;;;;;;26.83;19.55;;;16.50;58.50;;;;;;5023843;28;20034;-76
2022/04/29 11:53:10;;;;;;;25.67;20.55;;;16.80;56.40;;;;;;5017357;28;20641;-73
2022/04/29 11:55:36;;;;;;;27.83;20.87;;;16.50;57.00;;;;;;5020389;28;20036;-73
2022/04/29 11:58:03;;;;;;;29.65;22.80;;;16.10;58.30;;;;;;5016789;28;20037;-75
2022/04/29 12:00:34;;;;;;;28.23;23.80;;;16.10;59.80;;;;;;5018158;28;20440;-72
2022/04/29 12:03:01;;;;;;;26.35;22.92;;;16.50;58.00;;;;;;5026364;28;20025;-71
2022/04/29 12:05:30;;;;;;;29.52;24.33;;;16.50;58.10;;;;;;5012151;28;20092;-73
2022/04/29 12:08:00;;;;;;;29.00;23.70;;;16.70;57.80;;;;;;5006048;28;20058;-73
2022/04/29 12:10:28;;;;;;;29.58;23.83;;;17.10;57.70;;;;;;5013044;28;20092;-73
2022/04/29 12:12:56;;;;;;;31.45;24.85;;;17.10;55.80;;;;;;5023166;28;20151;-74
2022/04/29 12:15:30;;;;;;;29.77;24.33;;;16.60;56.40;;;;;;5013365;28;20040;-74
2022/04/29 12:18:00;;;;;;;;;;;16.90;57.20;;;;;;5015775;28;20072;-73
2022/04/29 12:20:26;;;;;;;30.33;22.85;;;17.30;56.60;;;;;;5029924;28;19955;-78
2022/04/29 12:22:53;;;;;;;29.20;22.63;;;17.40;55.60;;;;;;5034380;28;20026;-74
2022/04/29 12:25:23;;;;;;;27.95;21.83;;;17.30;55.90;;;;;;5019286;28;20025;-72
2022/04/29 12:28:09;;;;;;;27.90;21.70;;;17.50;55.40;;;;;;5022491;28;20060;-73
2022/04/29 12:36:07;;;;;;;;;;;17.10;57.10;;;;;;5018502;28;20037;-71
2022/04/29 12:38:35;;;;;;;29.92;22.80;;;16.90;56.90;;;;;;5018693;28;19917;-73
2022/04/29 12:41:27;;;;;;;28.85;22.42;;;16.80;57.20;;;;;;5007068;28;20041;-74
2022/04/29 12:43:53;;;;;;;29.77;22.55;;;17.00;55.70;;;;;;5008548;28;20073;-75
2022/04/29 12:46:20;;;;;;;31.92;24.42;;;16.80;56.20;;;;;;5007748;28;20069;-73
2022/04/29 12:48:48;;;;;;;31.13;23.95;;;17.00;57.20;;;;;;5013132;28;20040;-73
2022/04/29 12:51:25;;;;;;;30.15;24.33;;;17.40;56.10;;;;;;5002001;28;20089;-74
2022/04/29 12:53:55;;;;;;;28.90;23.63;;;17.80;55.00;;;;;;5012151;28;20517;-75
2022/04/29 12:56:34;;;;;;;28.40;24.15;;;17.80;54.30;;;;;;5013320;28;20051;-75
2022/04/29 12:59:03;;;;;;;28.38;25.38;;;17.70;54.30;;;;;;5019712;28;20045;-73
2022/04/29 13:01:39;;;;;;;28.42;24.15;;;17.50;54.40;;;;;;5003481;28;20033;-74
2022/04/29 13:04:06;;;;;;;28.05;22.95;;;17.70;54.80;;;;;;5014843;28;20409;-75
2022/04/29 13:06:34;;;;;;;27.08;22.60;;;18.10;54.20;;;;;;5016693;28;20117;-76
2022/04/29 13:09:02;;;;;;;27.77;23.08;;;17.90;54.10;;;;;;5011747;28;20037;-75